Terminal Aerodrome Forecast
Issued by NWS Charleston, WV

Current Version | Previous Version | Graphics & Text | Print | Product List | Glossary On
Versions: 1 2 3 4 5 6 7 8 9 10 11 12 13 14 15 16 17 18 19 20 21 22 23 24 25 26 27 28
000
FTUS41 KRLX 202347 RRA
TAFBKW
TAF
KBKW 202347Z 2100/2124 VRB03KT P6SM SCT200
     FM210900 VRB03KT 5SM -SHRA BKN050
     FM211100 02004KT 3SM -SHRA BR OVC010
     FM211400 27004KT P6SM BKN015=

USA.gov is the U.S. government's official web portal to all federal, state and local government web resources and services.